Latest Weather Observations for Avalon

IDV60901

Issued at 10:25 am EST Thursday 2 October 2014 (issued every 10 minutes, with the page automatically refreshed every 10 minutes)

About weather observations | Map of Melbourne area stations | Latest observations for Melbourne area | Other Formats
Station Details ID: 087113 Name: AVALON AIRPORT Lat: -38.03 Lon: 144.48 Height: 10.6 m
Data from the previous 72 hours. | See also: Recent months at Avalon
Date/Time
EST
Tmp

°C
App
Tmp
°C
Dew
Point
°C
Rel
Hum
%
Delta-T

°C
Wind Press
QNH
hPa
Press
MSL
hPa
Rain
since
9 am
mm
Dir
 
Spd
km/h
Gust
km/h
Spd
kts
Gust
kts
02/10:00am 14.4 8.8 8.6 68 2.9 W 28 39 15 21 1024.4 1024.4 0.0
02/09:30am 14.6 8.1 8.3 66 3.2 W 32 44 17 24 1024.4 1024.4 0.0
02/09:00am 13.9 8.3 8.9 72 2.5 W 28 35 15 19 1024.5 1024.5 0.0
02/08:30am 12.9 7.7 9.0 77 2.0 W 26 39 14 21 1024.3 1024.3 0.0
02/08:00am 12.5 8.6 8.6 77 1.9 W 19 26 10 14 1023.9 1023.9 0.0
02/07:30am 11.5 7.1 8.9 84 1.3 WNW 22 32 12 17 1023.8 1023.8 0.0
02/07:00am 10.8 7.0 8.9 88 0.9 WNW 19 24 10 13 1023.8 1023.8 0.0
02/06:30am 10.2 6.3 8.6 90 0.8 WNW 19 24 10 13 1023.7 1023.7 0.0
02/06:00am 10.1 6.0 8.5 90 0.8 WNW 20 26 11 14 1023.6 1023.6 0.0
02/05:30am 10.0 6.0 8.3 89 0.8 W 19 22 10 12 1023.5 1023.5 0.0
02/05:00am 9.9 6.6 8.2 89 0.8 WNW 15 20 8 11 1023.5 1023.5 0.0
02/04:32am 9.4 6.5 8.0 91 0.7 WNW 13 19 7 10 1023.5 1023.5 0.0
02/04:30am 9.4 6.1 8.0 91 0.7 W 15 19 8 10 1023.6 1023.6 0.0
02/04:16am 9.7 6.3 7.8 88 0.9 W 15 22 8 12 1023.7 1023.7 0.0
02/04:00am 10.0 7.0 7.8 86 1.1 WNW 13 19 7 10 1023.5 1023.5 0.0
02/03:30am 10.3 5.1 7.4 82 1.4 WNW 24 30 13 16 1023.5 1023.5 0.0
02/03:00am 10.1 6.6 7.0 81 1.5 NW 15 19 8 10 1023.7 1023.7 0.0
02/02:30am 10.0 7.2 7.1 82 1.4 WNW 11 15 6 8 1023.9 1023.9 0.0
02/02:00am 9.4 6.7 7.2 86 1.0 NW 11 17 6 9 1024.2 1024.2 0.0
02/01:30am 8.8 5.2 6.6 86 1.0 NW 15 17 8 9 1024.3 1024.3 0.0
02/01:00am 7.7 3.9 6.0 89 0.8 NW 15 19 8 10 1024.6 1024.6 0.0
02/12:30am 7.3 3.5 5.6 89 0.8 NNW 15 17 8 9 1024.7 1024.7 0.0
02/12:00am 6.8 3.3 5.3 90 0.7 NNW 13 13 7 7 1025.0 1025.0 0.0
 
Date/Time
EST
Tmp

°C
App
Tmp
°C
Dew
Point
°C
Rel
Hum
%
Delta-T

°C
Wind Press
QNH
hPa
Press
MSL
hPa
Rain
since
9 am
mm
Dir
 
Spd
km/h
Gust
km/h
Spd
kts
Gust
kts
01/11:30pm 7.0 3.5 5.3 89 0.8 NNW 13 15 7 8 1025.1 1025.1 0.0
01/11:00pm 7.4 3.9 5.4 87 0.9 NW 13 13 7 7 1025.3 1025.3 0.0
01/10:30pm 6.5 3.3 5.0 90 0.7 NW 11 13 6 7 1025.4 1025.4 0.0
01/10:00pm 6.8 3.6 5.0 88 0.8 NW 11 13 6 7 1025.5 1025.5 0.0
01/09:30pm 7.3 4.1 4.9 85 1.1 NW 11 15 6 8 1025.7 1025.7 0.0
01/09:00pm 7.9 4.4 5.4 84 1.1 W 13 13 7 7 1025.6 1025.6 0.0
01/08:30pm 9.7 5.5 5.7 76 1.8 W 17 19 9 10 1025.5 1025.5 0.0
01/08:00pm 9.4 5.6 5.6 77 1.7 W 15 17 8 9 1025.3 1025.3 0.0
01/07:30pm 10.2 5.9 5.4 72 2.2 W 17 19 9 10 1025.0 1025.0 0.0
01/07:00pm 11.0 6.7 5.3 68 2.6 WSW 17 20 9 11 1024.7 1024.7 0.0
01/06:30pm 12.1 6.4 4.8 61 3.3 WSW 24 32 13 17 1024.4 1024.4 0.0
01/06:00pm 13.1 7.8 4.8 57 3.8 WSW 22 33 12 18 1024.2 1024.2 0.0
01/05:30pm 14.0 7.6 5.1 55 4.2 WSW 28 33 15 18 1024.2 1024.2 0.0
01/05:00pm 14.7 8.6 4.7 51 4.6 WSW 26 35 14 19 1024.0 1024.0 0.0
01/04:30pm 14.9 7.6 4.3 49 4.9 W 32 39 17 21 1023.8 1023.8 0.0
01/04:00pm 14.6 7.3 4.3 50 4.7 WSW 32 41 17 22 1023.8 1023.8 0.0
01/03:30pm 15.6 10.5 5.8 52 4.7 WSW 22 35 12 19 1023.6 1023.6 0.0
01/03:02pm 13.6 7.3 5.7 59 3.7 WSW 28 46 15 25 1023.8 1023.8 0.0
01/03:00pm 13.6 6.5 5.5 58 3.8 WSW 32 46 17 25 1023.8 1023.8 0.0
01/02:46pm 15.1 8.7 5.0 51 4.7 W 28 46 15 25 1023.6 1023.6 0.0
01/02:30pm 14.7 9.7 6.3 57 4.0 W 22 30 12 16 1023.9 1023.9 0.0
01/02:00pm 14.2 8.5 6.6 60 3.7 W 26 37 14 20 1023.9 1023.9 0.0
01/01:30pm 14.8 10.2 6.4 57 4.1 WSW 20 24 11 13 1023.8 1023.8 0.0
01/01:07pm 13.2 5.1 5.4 59 3.6 WSW 37 44 20 24 1024.3 1024.3 0.0
01/01:00pm 14.3 10.9 7.8 65 3.2 WSW 15 24 8 13 1024.0 1024.0 0.0
01/12:30pm 11.7 6.2 7.6 76 2.0 SSW 26 33 14 18 1024.5 1024.5 0.0
01/12:00pm 12.7 8.1 6.5 66 2.9 SSW 20 26 11 14 1024.2 1024.2 0.0
01/11:30am 14.0 8.6 6.4 60 3.7 WSW 24 37 13 20 1024.0 1024.0 0.0
01/11:00am 14.6 8.1 4.6 51 4.6 WSW 28 39 15 21 1023.9 1023.9 0.0
01/10:30am 13.1 7.3 4.5 56 3.9 WSW 24 32 13 17 1024.1 1024.1 0.0
01/10:00am 13.0 6.5 4.7 57 3.8 W 28 41 15 22 1023.9 1023.9 0.0
01/09:30am 12.4 6.8 5.3 62 3.3 W 24 32 13 17 1023.7 1023.7 0.0
01/09:00am 11.7 6.2 5.8 67 2.7 W 24 35 13 19 1023.2 1023.2 4.2
01/08:30am 10.5 4.6 5.7 72 2.2 W 26 33 14 18 1022.7 1022.7 4.2
01/08:00am 9.8 4.3 6.0 77 1.7 W 24 32 13 17 1022.2 1022.2 4.2
01/07:30am 8.3 3.0 5.1 80 1.4 WNW 22 28 12 15 1021.8 1021.8 4.2
01/07:00am 7.1 1.7 4.4 83 1.2 WNW 22 28 12 15 1021.3 1021.3 4.2
01/06:30am 5.9 0.8 3.9 87 0.8 WNW 20 30 11 16 1020.8 1020.8 4.2
01/06:00am 5.9 0.4 3.9 87 0.8 WNW 22 30 12 16 1020.2 1020.2 4.2
01/05:30am 5.5 0.3 3.7 88 0.8 WNW 20 26 11 14 1019.7 1019.7 4.2
01/05:00am 5.5 0.3 3.7 88 0.8 WNW 20 24 11 13 1019.2 1019.2 4.2
01/04:30am 5.8 -0.2 3.6 86 0.9 WNW 24 32 13 17 1019.0 1019.0 4.2
01/04:00am 6.1 0.2 3.9 86 0.9 WNW 24 30 13 16 1018.4 1018.4 4.2
01/03:30am 6.2 -0.5 3.7 84 1.1 WNW 28 33 15 18 1018.1 1018.1 4.2
01/03:00am 6.2 -0.1 3.7 84 1.1 WNW 26 33 14 18 1017.7 1017.7 4.2
01/02:30am 6.0 0.8 3.7 85 1.0 WNW 20 26 11 14 1017.5 1017.5 4.2
01/02:00am 6.5 0.6 3.7 82 1.2 WNW 24 30 13 16 1017.2 1017.2 4.2
01/01:30am 6.5 0.6 3.8 83 1.1 W 24 30 13 16 1016.8 1016.8 4.2
01/01:00am 6.8 -0.6 3.9 82 1.2 W 32 44 17 24 1016.6 1016.6 4.2
01/12:30am 6.8 0.5 3.9 82 1.2 W 26 39 14 21 1016.2 1016.2 4.2
01/12:00am 7.1 0.1 4.2 82 1.2 W 30 37 16 20 1015.6 1015.6 4.2
 
Date/Time
EST
Tmp

°C
App
Tmp
°C
Dew
Point
°C
Rel
Hum
%
Delta-T

°C
Wind Press
QNH
hPa
Press
MSL
hPa
Rain
since
9 am
mm
Dir
 
Spd
km/h
Gust
km/h
Spd
kts
Gust
kts
30/11:30pm 7.2 0.2 4.3 82 1.3 WNW 30 37 16 20 1015.1 1015.1 4.2
30/11:00pm 6.9 -0.5 4.2 83 1.2 WNW 32 39 17 21 1014.8 1014.8 4.2
30/10:30pm 7.2 -1.1 4.3 82 1.3 WNW 37 48 20 26 1014.6 1014.6 4.2
30/10:08pm 7.4 -3.0 4.4 81 1.3 W 48 67 26 36 1014.2 1014.2 4.2
30/10:00pm 7.9 -4.3 3.9 76 1.7 W 57 67 31 36 1014.5 1014.5 4.2
30/09:57pm 8.4 0.4 3.7 72 2.0 WNW 35 69 19 37 1014.4 1014.4 4.2
30/09:30pm 8.4 0.8 3.7 72 2.0 WNW 33 43 18 23 1013.4 1013.4 4.2
30/09:00pm 8.7 2.2 4.9 77 1.7 WNW 28 37 15 20 1012.9 1012.9 4.2
30/08:30pm 8.4 2.0 5.2 80 1.4 WNW 28 35 15 19 1012.6 1012.6 4.2
30/08:00pm 8.2 3.1 5.8 85 1.1 WNW 22 28 12 15 1012.4 1012.4 4.2
30/07:45pm 7.4 2.1 5.2 86 1.0 W 22 30 12 16 1012.3 1012.3 4.2
30/07:35pm 8.0 1.2 5.3 83 1.2 WSW 30 46 16 25 1012.6 1012.6 4.2
30/07:30pm 8.2 1.5 5.5 83 1.2 WSW 30 46 16 25 1012.7 1012.7 4.2
30/07:29pm 8.3 2.0 5.6 83 1.2 WSW 28 46 15 25 1012.7 1012.7 4.2
30/07:00pm 8.8 2.5 5.9 82 1.3 WNW 28 35 15 19 1011.1 1011.1 3.2
30/06:30pm 8.6 2.4 6.1 84 1.1 W 28 39 15 21 1010.7 1010.7 3.2
30/06:05pm 9.4 3.3 6.7 83 1.3 W 28 46 15 25 1010.5 1010.5 3.2
30/06:00pm 9.5 1.9 6.0 79 1.6 W 35 48 19 26 1010.5 1010.5 3.2
30/05:52pm 9.8 1.6 6.5 80 1.5 W 39 63 21 34 1010.4 1010.4 3.2
30/05:30pm 11.8 3.6 6.7 71 2.4 WNW 39 61 21 33 1009.3 1009.3 2.8
30/05:29pm 11.8 4.1 6.9 72 2.3 WNW 37 59 20 32 1009.2 1009.2 2.8
30/05:00pm 12.1 4.8 7.0 71 2.5 WNW 35 46 19 25 1008.5 1008.5 2.8
30/04:30pm 10.8 4.4 6.9 77 1.8 WNW 30 43 16 23 1008.4 1008.4 2.8
30/04:00pm 9.6 2.2 6.7 82 1.4 WNW 35 44 19 24 1008.4 1008.4 2.8
30/03:59pm 9.5 2.1 6.6 82 1.4 WNW 35 44 19 24 1008.3 1008.3 2.8
30/03:39pm 9.9 -1.1 6.6 80 1.5 W 54 96 29 52 1008.1 1008.1 2.2
30/03:37pm 10.4 -0.1 7.5 82 1.4 W 52 96 28 52 1008.0 1008.0 2.2
30/03:30pm 11.0 0.7 8.2 83 1.4 W 52 70 28 38 1007.9 1007.9 2.0
30/03:21pm 11.2 1.0 8.6 84 1.3 WSW 52 76 28 41 1007.1 1007.1 2.0
30/03:00pm 12.0 3.3 10.1 88 1.0 W 46 72 25 39 1006.1 1006.1 1.6
30/02:45pm 12.7 2.7 10.6 87 1.1 W 54 72 29 39 1005.2 1005.2 1.2
30/02:44pm 12.7 2.2 10.4 86 1.2 W 56 72 30 39 1005.0 1005.0 1.2
30/02:30pm 12.8 1.8 10.7 87 1.1 W 59 80 32 43 1004.6 1004.6 1.2
30/02:21pm 12.9 1.6 9.5 80 1.7 W 59 78 32 42 1004.1 1004.1 0.4
30/02:19pm 13.7 -1.6 8.1 69 2.8 W 78 104 42 56 1003.9 1003.9 0.0
30/02:18pm 15.1 3.6 7.2 59 3.9 NW 57 104 31 56 1003.7 1003.7 0.0
30/02:00pm 22.5 11.1 5.0 32 8.7 NW 54 72 29 39 1001.5 1001.5 0.0
30/01:30pm 23.4 12.2 5.8 32 8.9 NW 54 74 29 40 1001.8 1001.8 0.0
30/01:00pm 23.0 12.4 7.1 36 8.3 NNW 52 72 28 39 1002.4 1002.4 0.0
30/12:30pm 21.8 12.7 6.9 38 7.6 NNW 44 69 24 37 1003.4 1003.4 0.0
30/12:00pm 21.1 11.7 7.0 40 7.2 NNW 46 67 25 36 1004.6 1004.6 0.0
30/11:51am 20.3 11.5 8.0 45 6.4 NNW 44 67 24 36 1004.6 1004.6 0.0
30/11:30am 21.7 13.0 7.9 41 7.2 NNW 43 57 23 31 1004.8 1004.8 0.0
30/11:00am 22.1 13.7 7.5 39 7.6 NNW 41 59 22 32 1005.2 1005.2 0.0
30/10:40am 22.3 13.4 7.7 39 7.6 NNW 44 63 24 34 1005.5 1005.5 0.0
30/10:30am 21.6 12.6 7.1 39 7.4 NNW 44 61 24 33 1005.5 1005.5 0.0
30/10:08am 21.9 13.9 7.3 39 7.5 NNW 39 59 21 32 1005.9 1005.9 0.0
30/10:00am 21.9 14.0 7.7 40 7.4 NW 39 54 21 29 1006.2 1006.2 0.0
30/09:30am 20.8 13.2 7.4 42 6.9 NNW 37 50 20 27 1006.8 1006.8 0.0
30/09:00am 18.9 12.9 8.6 51 5.4 N 30 41 16 22 1007.3 1007.3 0.0
30/08:30am 17.7 11.5 8.0 53 4.9 N 30 39 16 21 1007.8 1007.8 0.0
30/08:00am 17.4 11.7 8.5 56 4.6 N 28 39 15 21 1008.2 1008.2 0.0
30/07:30am 14.0 9.8 8.2 68 2.9 NNE 20 26 11 14 1008.7 1008.7 0.0
30/07:00am 12.2 8.5 8.1 76 2.0 N 17 20 9 11 1009.3 1009.3 0.0
30/06:30am 11.1 8.2 8.0 81 1.5 N 13 17 7 9 1009.5 1009.5 0.0
30/06:00am 8.1 4.7 5.9 86 1.0 N 13 15 7 8 1009.4 1009.4 0.0
30/05:30am 8.8 5.5 6.2 84 1.2 N 13 15 7 8 1009.1 1009.1 0.0
30/05:00am 10.3 6.4 7.0 80 1.6 N 17 19 9 10 1008.9 1008.9 0.0
30/04:30am 11.1 7.4 7.8 80 1.6 N 17 20 9 11 1008.7 1008.7 0.0
30/04:00am 10.1 7.4 7.3 83 1.3 NNW 11 11 6 6 1008.8 1008.8 0.0
30/03:30am 9.6 6.8 7.0 84 1.2 NNW 11 13 6 7 1009.2 1009.2 0.0
30/03:00am 9.5 7.1 6.8 83 1.3 N 9 9 5 5 1009.4 1009.4 0.0
30/02:30am 10.5 8.6 7.4 81 1.5 NNW 7 9 4 5 1009.7 1009.7 0.0
30/02:00am 10.3 7.6 7.4 82 1.4 NNW 11 11 6 6 1010.2 1010.2 0.0
30/01:30am 10.8 8.1 7.3 79 1.7 N 11 13 6 7 1010.7 1010.7 0.0
30/01:00am 12.0 9.9 8.1 77 1.9 WNW 9 11 5 6 1011.0 1011.0 0.0
30/12:30am 13.7 12.8 10.7 82 1.6 W 6 9 3 5 1011.2 1011.2 0.0
30/12:00am 14.4 12.3 9.8 74 2.4 WSW 11 13 6 7 1011.5 1011.5 0.0
 
Date/Time
EST
Tmp

°C
App
Tmp
°C
Dew
Point
°C
Rel
Hum
%
Delta-T

°C
Wind Press
QNH
hPa
Press
MSL
hPa
Rain
since
9 am
mm
Dir
 
Spd
km/h
Gust
km/h
Spd
kts
Gust
kts
29/11:30pm 15.1 12.1 7.6 61 3.7 WNW 13 19 7 10 1011.6 1011.6 0.0
29/11:00pm 14.7 11.6 7.3 61 3.6 WSW 13 17 7 9 1011.6 1011.6 0.0
29/10:30pm 15.8 11.9 7.0 56 4.3 N 17 20 9 11 1011.4 1011.4 0.0
29/10:00pm 13.8 11.0 6.9 63 3.3 N 11 13 6 7 1011.3 1011.3 0.0
29/09:30pm 12.9 10.0 6.7 66 3.0 N 11 15 6 8 1011.3 1011.3 0.0
29/09:00pm 15.8 11.8 6.5 54 4.5 N 17 20 9 11 1011.2 1011.2 0.0
29/08:30pm 16.7 12.7 6.5 51 5.0 N 17 19 9 10 1011.2 1011.2 0.0
29/08:00pm 16.1 12.4 6.5 53 4.7 N 15 17 8 9 1011.2 1011.2 0.0
29/07:30pm 16.3 13.1 7.0 54 4.6 N 13 15 7 8 1011.0 1011.0 0.0
29/07:00pm 16.0 12.8 7.0 55 4.4 N 13 15 7 8 1010.7 1010.7 0.0
29/06:30pm 17.1 13.5 6.9 51 5.1 NNW 15 17 8 9 1010.6 1010.6 0.0
29/06:00pm 20.0 16.1 7.1 43 6.6 NNW 17 22 9 12 1010.5 1010.5 0.0
29/05:30pm 21.4 17.0 7.3 40 7.3 N 20 28 11 15 1010.4 1010.4 0.0
29/05:00pm 22.0 16.1 7.4 39 7.6 NNW 28 35 15 19 1010.3 1010.3 0.0
29/04:30pm 22.9 17.6 7.0 36 8.2 NW 24 32 13 17 1010.3 1010.3 0.0
29/04:00pm 22.4 15.9 6.6 36 8.1 N 30 37 16 20 1010.3 1010.3 0.0
29/03:30pm 23.0 16.6 5.4 32 8.8 NW 28 46 15 25 1010.2 1010.2 0.0
29/03:29pm 23.2 17.0 6.0 33 8.7 NW 28 46 15 25 1010.2 1010.2 0.0
29/03:00pm 23.5 17.9 7.2 35 8.5 NNW 26 35 14 19 1010.4 1010.4 0.0
29/02:30pm 23.5 18.4 7.6 36 8.3 NNW 24 41 13 22 1010.5 1010.5 0.0
29/02:00pm 22.0 16.1 5.8 35 8.1 NNW 26 39 14 21 1010.9 1010.9 0.0
29/01:30pm 21.8 16.1 6.9 38 7.6 NNW 26 39 14 21 1011.3 1011.3 0.0
29/01:00pm 21.9 16.8 7.7 40 7.4 NNW 24 35 13 19 1011.7 1011.7 0.0
29/12:30pm 21.3 16.5 7.5 41 7.1 NNW 22 37 12 20 1012.2 1012.2 0.0
29/12:00pm 19.6 13.3 5.6 40 6.9 NNW 28 33 15 18 1012.7 1012.7 0.0
29/11:30am 19.8 14.1 6.5 42 6.7 NNW 26 35 14 19 1012.9 1012.9 0.0
29/11:00am 19.1 13.4 6.6 44 6.3 NNW 26 41 14 22 1013.2 1013.2 0.0
29/10:30am 18.5 12.6 7.6 49 5.5 WNW 28 35 15 19 1013.5 1013.5 0.0

Latest Capital City Observations: Canberra | Sydney | Melbourne | Brisbane | Adelaide | Perth | Hobart | Darwin

Other Formats:

Comma delimited format used in spreadsheet applications
http://www.bom.gov.au/fwo/IDV60901/IDV60901.94854.axf

JavaScript Object Notation format (JSON) in row-major order
http://www.bom.gov.au/fwo/IDV60901/IDV60901.94854.json